Time;durP1;ratioP1;P1;durP2;ratioP2;P2;SDS_P1;SDS_P2;PMS_P1;PMS_P2;Temp;Humidity;BMP_temperature;BMP_pressure;BME280_temperature;BME280_humidity;BME280_pressure;Samples;Min_cycle;Max_cycle;Signal;HPM_P1;HPM_P2
2022/06/13 00:01:22;;;;;;;5.60;2.33;;;;;;;23.91;38.45;99057.84;5114767;28;20123;-73
2022/06/13 00:03:47;;;;;;;4.68;2.90;;;;;;;23.93;38.60;99050.34;5132965;27;20071;-70
2022/06/13 00:06:13;;;;;;;5.10;3.53;;;;;;;23.92;38.67;99052.25;5127335;27;20421;-70
2022/06/13 00:08:39;;;;;;;5.35;2.78;;;;;;;23.93;38.51;99061.16;5114292;27;20397;-70
2022/06/13 00:11:11;;;;;;;5.13;3.03;;;;;;;23.92;39.00;99052.25;5114882;28;20048;-72
2022/06/13 00:13:37;;;;;;;4.45;2.95;;;;;;;23.91;38.63;99056.00;5114387;28;20032;-70
2022/06/13 00:16:04;;;;;;;6.07;2.58;;;;;;;23.89;38.95;99046.47;5121921;27;20054;-71
2022/06/13 00:18:29;;;;;;;5.93;2.83;;;;;;;23.90;38.87;99046.22;5117207;27;20042;-70
2022/06/13 00:20:55;;;;;;;4.20;2.72;;;;;;;23.89;38.99;99046.47;5114731;28;20089;-71
2022/06/13 00:23:22;;;;;;;5.07;2.88;;;;;;;23.89;38.67;99043.75;5114366;28;20032;-69
2022/06/13 00:25:47;;;;;;;5.22;2.65;;;;;;;23.88;38.49;99042.91;5114129;28;20036;-68
2022/06/13 00:28:13;;;;;;;5.85;3.05;;;;;;;23.85;39.01;99037.94;5115840;27;20058;-71
2022/06/13 00:30:38;;;;;;;5.22;2.95;;;;;;;23.86;38.57;99044.19;5126499;27;20035;-69
2022/06/13 00:33:04;;;;;;;4.47;2.65;;;;;;;23.85;38.92;99042.53;5113962;28;20028;-70
2022/06/13 00:35:29;;;;;;;6.90;2.90;;;;;;;23.84;38.86;99040.88;5114224;28;20031;-71
2022/06/13 00:37:55;;;;;;;4.50;2.72;;;;;;;23.82;38.84;99037.56;5113669;28;20069;-69
2022/06/13 00:40:22;;;;;;;5.47;2.83;;;;;;;23.80;38.73;99034.25;5129501;27;20026;-72
2022/06/13 00:42:48;;;;;;;4.00;2.83;;;;;;;23.80;38.91;99036.94;5134538;27;20027;-67
2022/06/13 00:45:18;;;;;;;5.88;2.72;;;;;;;23.80;38.91;99031.56;5134616;27;20617;-68
2022/06/13 00:47:47;;;;;;;7.85;2.47;;;;;;;23.77;38.93;99030.94;5120860;27;20036;-70
2022/06/13 00:50:23;;;;;;;3.55;2.15;;;;;;;23.76;38.75;99029.28;5113110;28;20406;-69
2022/06/13 00:52:51;;;;;;;3.75;2.33;;;;;;;23.74;39.02;99025.16;5099100;28;20020;-70
2022/06/13 00:55:27;;;;;;;3.83;2.58;;;;;;;23.75;38.63;99033.03;5134397;27;20035;-68
2022/06/13 00:57:53;;;;;;;6.80;2.90;;;;;;;23.74;38.97;99023.31;5134291;27;20019;-68
2022/06/13 01:00:19;;;;;;;6.10;2.40;;;;;;;23.73;38.70;99027.06;5111593;28;20031;-70
2022/06/13 01:02:47;;;;;;;4.43;2.45;;;;;;;23.73;38.64;99032.44;5113269;28;20038;-70
2022/06/13 01:05:18;;;;;;;3.13;2.38;;;;;;;23.73;38.77;99032.44;5117865;27;20397;-69
2022/06/13 01:07:44;;;;;;;5.43;2.38;;;;;;;23.70;38.57;99030.19;5134006;27;20035;-68
2022/06/13 01:12:54;;;;;;;5.80;2.53;;;;;;;23.67;38.74;99024.41;5117861;27;20536;-70
2022/06/13 01:15:25;;;;;;;3.78;2.33;;;;;;;23.67;38.83;99022.50;5114154;28;20420;-70
2022/06/13 01:18:43;;;;;;;3.80;2.30;;;;;;;23.67;38.42;99035.19;5119538;27;20481;-71
2022/06/13 01:21:30;;;;;;;3.60;1.88;;;;;;;23.63;38.83;99029.38;5071051;28;20034;-71
2022/06/13 01:24:23;;;;;;;3.90;2.13;;;;;;;23.63;39.14;99026.69;5112915;28;20518;-70
2022/06/13 01:27:31;;;;;;;4.43;1.75;;;;;;;23.63;39.07;99034.78;5112400;28;20051;-71
2022/06/13 01:30:21;;;;;;;4.10;2.22;;;;;;;23.61;39.03;99031.47;5113387;28;20032;-69
2022/06/13 01:33:18;;;;;;;5.28;2.28;;;;;;;23.58;38.69;99031.94;5113159;28;20031;-70
2022/06/13 01:35:46;;;;;;;4.03;2.20;;;;;;;23.58;39.08;99026.53;5113039;28;20539;-71
2022/06/13 01:38:44;;;;;;;4.50;1.90;;;;;;;23.59;38.72;99037.09;5112882;28;20047;-70
2022/06/13 01:41:18;;;;;;;3.58;2.20;;;;;;;23.58;38.85;99035.44;5105267;28;20047;-71
2022/06/13 01:44:00;;;;;;;4.18;2.30;;;;;;;23.58;39.08;99021.94;5113542;28;20046;-70
2022/06/13 01:46:30;;;;;;;6.93;2.20;;;;;;;23.58;39.21;99030.06;5112704;28;20027;-71
2022/06/13 01:49:06;;;;;;;3.17;1.88;;;;;;;23.56;38.82;99024.03;5112786;28;20509;-69
2022/06/13 01:51:42;;;;;;;4.22;1.85;;;;;;;23.55;38.95;99022.38;5112543;28;20050;-69
2022/06/13 01:54:36;;;;;;;6.57;2.30;;;;;;;23.56;38.77;99017.81;5113462;28;20038;-71
2022/06/13 01:57:14;;;;;;;4.32;1.90;;;;;;;23.57;39.05;99024.88;5113802;28;20031;-69
2022/06/13 02:00:08;;;;;;;5.35;2.78;;;;;;;23.60;39.04;99029.84;5133631;28;20039;-70
2022/06/13 02:02:42;;;;;;;3.75;2.30;;;;;;;23.60;38.63;99024.44;5133093;28;20126;-68
2022/06/13 02:05:21;;;;;;;6.13;1.90;;;;;;;23.62;38.88;99030.44;5135734;27;20035;-70
2022/06/13 02:07:55;;;;;;;3.45;1.98;;;;;;;23.63;38.77;99024.00;5133134;27;20165;-70
2022/06/13 02:10:26;;;;;;;5.18;2.35;;;;;;;23.65;38.91;99023.78;5137588;27;20035;-71
2022/06/13 02:12:58;;;;;;;4.95;2.00;;;;;;;23.65;39.12;99024.59;5137301;27;20038;-68
2022/06/13 02:15:28;;;;;;;5.00;2.30;;;;;;;23.67;38.94;99017.09;5137544;27;20042;-69
2022/06/13 02:18:16;;;;;;;4.60;2.88;;;;;;;23.64;38.82;99017.53;5127908;27;20027;-70
2022/06/13 02:20:48;;;;;;;3.25;1.92;;;;;;;23.63;39.00;99024.00;5117147;28;20052;-71
2022/06/13 02:23:19;;;;;;;2.60;1.80;;;;;;;23.64;39.24;99016.72;5116508;28;20036;-68
2022/06/13 02:25:53;;;;;;;3.33;1.77;;;;;;;23.61;38.88;99015.28;5116792;28;20031;-71
2022/06/13 02:28:37;;;;;;;3.22;1.70;;;;;;;23.61;39.02;99009.88;5120958;27;20051;-69
2022/06/13 02:31:09;;;;;;;4.10;2.42;;;;;;;23.62;39.31;99006.97;5137028;27;20035;-71
2022/06/13 02:33:40;;;;;;;4.93;2.08;;;;;;;23.62;39.08;99009.66;5116069;27;20031;-70
2022/06/13 02:36:21;;;;;;;;;;;;;;;23.57;39.13;99012.19;5118192;27;20496;-69
2022/06/13 02:39:01;;;;;;;2.45;1.83;;;;;;;23.56;39.43;99005.13;5116388;28;19912;-68
2022/06/13 02:41:41;;;;;;;6.55;1.98;;;;;;;23.58;39.07;99013.03;5116428;28;20048;-69
2022/06/13 02:44:18;;;;;;;4.50;2.40;;;;;;;23.60;39.48;99010.94;5115644;27;20032;-70
2022/06/13 02:46:51;;;;;;;4.20;1.80;;;;;;;23.61;39.21;99005.31;5116273;28;20039;-68
2022/06/13 02:49:16;;;;;;;7.03;2.92;;;;;;;23.62;39.25;99011.53;5116275;28;20134;-68
2022/06/13 02:52:00;;;;;;;2.85;2.00;;;;;;;23.64;39.27;99009.44;5115703;28;20110;-69
2022/06/13 02:54:34;;;;;;;3.60;2.10;;;;;;;23.64;39.37;99008.63;5115999;27;20046;-70
2022/06/13 02:57:27;;;;;;;4.35;2.05;;;;;;;23.65;39.25;99008.41;5115767;28;20035;-69
2022/06/13 03:00:30;;;;;;;2.72;1.63;;;;;;;23.66;39.50;99007.34;5116182;28;20027;-69
2022/06/13 03:03:20;;;;;;;3.53;1.77;;;;;;;23.66;39.36;99003.84;5122836;27;20027;-70
2022/06/13 03:05:55;;;;;;;3.15;1.67;;;;;;;23.67;39.62;98998.19;5136320;27;20027;-69
2022/06/13 03:08:25;;;;;;;3.03;1.90;;;;;;;23.68;39.66;98999.84;5136402;27;20046;-70
2022/06/13 03:11:24;;;;;;;3.78;1.85;;;;;;;23.71;39.51;98993.19;5117776;27;20121;-70
2022/06/13 03:13:59;;;;;;;6.55;2.08;;;;;;;23.73;39.73;98991.94;5123995;27;20030;-71
2022/06/13 03:16:43;;;;;;;5.13;2.33;;;;;;;23.88;39.62;98990.78;5135154;27;20046;-72
2022/06/13 03:19:22;;;;;;;3.45;2.13;;;;;;;24.08;39.17;98985.22;5136611;27;20034;-71
2022/06/13 03:21:52;;;;;;;5.50;2.60;;;;;;;24.25;39.09;98985.44;5128304;27;20077;-69
2022/06/13 03:24:26;;;;;;;5.38;2.50;;;;;;;24.45;38.56;98979.81;5132126;27;20122;-68
2022/06/13 03:27:03;;;;;;;5.75;1.85;;;;;;;24.62;38.49;98974.63;5135667;27;20081;-70
2022/06/13 03:29:42;;;;;;;11.15;2.38;;;;;;;24.81;38.59;98985.44;5135902;27;20035;-69
2022/06/13 03:32:19;;;;;;;4.90;2.53;;;;;;;24.94;38.51;98981.75;5131992;27;20042;-70
2022/06/13 03:34:49;;;;;;;6.82;2.15;;;;;;;25.05;38.46;98980.16;5115210;28;20070;-69
2022/06/13 03:37:20;;;;;;;10.05;2.30;;;;;;;25.12;38.14;98981.72;5115326;28;20042;-69
2022/06/13 03:40:06;;;;;;;4.10;2.20;;;;;;;25.14;38.31;98984.16;5114887;28;20031;-71
2022/06/13 03:42:57;;;;;;;7.80;2.40;;;;;;;25.14;38.31;98978.75;5113699;28;20423;-71
2022/06/13 03:45:26;;;;;;;;;;;;;;;25.05;38.10;98977.44;5115461;28;20039;-68
2022/06/13 03:48:11;;;;;;;11.32;2.08;;;;;;;25.05;38.49;98978.25;5114397;28;20020;-71
2022/06/13 03:50:54;;;;;;;6.65;2.42;;;;;;;25.09;38.34;98971.34;5115119;28;20031;-69
2022/06/13 03:53:27;;;;;;;4.15;2.60;;;;;;;25.16;38.25;98978.50;5114748;28;20046;-69
2022/06/13 03:56:00;;;;;;;6.53;2.15;;;;;;;25.18;38.17;98971.84;5115033;28;20078;-71
2022/06/13 03:58:40;;;;;;;7.47;2.13;;;;;;;25.16;38.23;98968.53;5114670;28;20039;-67
2022/06/13 04:01:15;;;;;;;5.20;2.50;;;;;;;25.16;38.44;98976.66;5114528;28;20029;-71
2022/06/13 04:03:41;;;;;;;6.78;1.92;;;;;;;25.16;38.49;98975.81;5114387;28;20367;-68
2022/06/13 04:06:37;;;;;;;5.97;2.42;;;;;;;25.14;38.57;98973.34;5126398;27;20091;-70
2022/06/13 04:09:46;;;;;;;4.50;2.28;;;;;;;25.10;38.54;98970.28;5135221;27;20031;-69
2022/06/13 04:12:23;;;;;;;7.90;2.78;;;;;;;25.11;38.83;98962.97;5121638;27;20062;-71
2022/06/13 04:14:58;;;;;;;6.18;2.53;;;;;;;25.10;38.85;98967.56;5114396;28;20049;-70
2022/06/13 04:17:29;;;;;;;3.58;1.90;;;;;;;25.08;38.94;98969.69;5115493;27;20063;-70
2022/06/13 04:20:06;;;;;;;4.28;2.53;;;;;;;25.08;38.97;98969.69;5134746;27;20035;-68
2022/06/13 04:22:32;;;;;;;5.88;2.58;;;;;;;25.13;39.00;98966.28;5122013;27;20039;-69
2022/06/13 04:25:07;;;;;;;4.70;2.47;;;;;;;25.17;39.00;98967.47;5114092;28;20410;-67
2022/06/13 04:27:51;;;;;;;4.25;2.17;;;;;;;25.19;39.15;98965.38;5113320;28;20138;-71
2022/06/13 04:30:20;;;;;;;5.57;2.22;;;;;;;25.23;38.85;98949.47;5114083;28;20553;-70
2022/06/13 04:32:55;;;;;;;5.20;2.90;;;;;;;25.34;38.93;98950.56;5113386;28;20035;-70
2022/06/13 04:35:21;;;;;;;5.32;2.42;;;;;;;25.53;39.05;98962.16;5114227;28;20501;-68
2022/06/13 04:37:48;;;;;;;4.20;2.45;;;;;;;25.78;38.58;98958.41;5113536;28;20035;-70
2022/06/13 04:40:19;;;;;;;3.75;2.17;;;;;;;26.04;38.27;98957.94;5113486;28;20126;-70
2022/06/13 04:42:46;;;;;;;6.72;2.17;;;;;;;26.25;38.01;98957.63;5113861;27;20046;-69
2022/06/13 04:45:41;;;;;;;4.97;1.95;;;;;;;26.48;37.60;98960.25;5113882;28;20198;-71
2022/06/13 04:48:08;;;;;;;2.70;1.77;;;;;;;26.51;37.70;98953.53;5113333;28;20035;-69
2022/06/13 04:50:41;;;;;;;4.75;2.17;;;;;;;26.52;37.75;98957.09;5113719;28;20505;-66
2022/06/13 04:53:24;;;;;;;3.65;2.10;;;;;;;26.46;37.82;98961.56;5113662;28;20035;-71
2022/06/13 04:55:52;;;;;;;3.22;1.95;;;;;;;26.39;38.10;98959.00;5113589;28;20486;-69
2022/06/13 04:58:42;;;;;;;5.03;2.58;;;;;;;26.31;38.01;98964.78;5113527;27;20035;-71
2022/06/13 05:01:25;;;;;;;5.53;2.60;;;;;;;26.27;38.39;98950.88;5105688;28;20066;-72
2022/06/13 05:03:53;;;;;;;12.05;3.20;;;;;;;26.22;38.57;98960.78;5113736;28;20269;-72
2022/06/13 05:06:29;;;;;;;14.10;3.92;;;;;;;26.22;38.57;98960.78;5113420;28;20035;-71
2022/06/13 05:09:05;;;;;;;17.75;4.55;;;;;;;26.20;38.28;98967.28;5115165;27;20031;-72
2022/06/13 05:12:05;;;;;;;24.80;6.38;;;;;;;26.17;38.66;98965.03;5113568;28;20406;-70
2022/06/13 05:14:43;;;;;;;26.25;8.05;;;;;;;26.32;38.72;98961.00;5089554;28;20494;-67
2022/06/13 05:17:32;;;;;;;31.67;9.35;;;;;;;26.47;38.30;98974.09;5113011;28;20043;-69
2022/06/13 05:20:07;;;;;;;51.58;15.10;;;;;;;26.54;38.22;98976.66;5113093;28;20027;-68
2022/06/13 05:22:38;;;;;;;54.92;17.20;;;;;;;26.53;38.21;98973.09;5113099;28;20035;-71
2022/06/13 05:25:09;;;;;;;98.60;27.83;;;;;;;26.50;38.29;98977.13;5112668;28;20027;-69
2022/06/13 05:27:35;;;;;;;86.38;27.08;;;;;;;26.47;38.40;98972.19;5112963;28;20463;-69
2022/06/13 05:30:01;;;;;;;86.07;25.55;;;;;;;26.41;38.42;98964.19;5131551;27;20031;-72
2022/06/13 05:32:26;;;;;;;76.95;23.70;;;;;;;26.40;38.64;98970.66;5097385;28;20138;-71
2022/06/13 05:34:53;;;;;;;77.18;22.83;;;;;;;26.37;38.60;98973.84;5113278;28;20479;-68
2022/06/13 05:37:19;;;;;;;68.80;22.90;;;;;;;26.33;38.73;98968.88;5114236;28;20032;-70
2022/06/13 05:39:45;;;;;;;80.10;25.20;;;;;;;26.38;38.67;98972.78;5112585;28;20036;-69
2022/06/13 05:42:14;;;;;;;82.97;26.23;;;;;;;26.36;38.81;98962.19;5112907;28;20118;-69
2022/06/13 05:44:40;;;;;;;102.10;29.15;;;;;;;26.35;38.94;98972.19;5113581;28;20039;-69
2022/06/13 05:47:16;;;;;;;84.60;24.77;;;;;;;26.32;38.91;98971.84;5112837;28;20035;-71
2022/06/13 05:49:42;;;;;;;148.52;38.58;;;;;;;26.29;39.15;98972.31;5112686;28;20410;-71
2022/06/13 05:52:07;;;;;;;151.45;36.97;;;;;;;26.26;39.31;98972.78;5112419;28;20039;-70
2022/06/13 05:54:33;;;;;;;85.43;23.30;;;;;;;26.22;39.54;98971.63;5113021;28;20504;-69
2022/06/13 05:56:58;;;;;;;158.27;38.75;;;;;;;26.21;39.57;98976.22;5112941;28;20486;-70
2022/06/13 05:59:24;;;;;;;127.97;33.40;;;;;;;26.17;39.48;98973.16;5112914;28;20028;-70
2022/06/13 06:01:49;;;;;;;111.22;31.02;;;;;;;26.17;39.57;98977.78;5112744;28;20032;-71
2022/06/13 06:04:15;;;;;;;95.75;24.33;;;;;;;26.16;39.81;98971.53;5112748;28;20164;-70
2022/06/13 06:06:40;;;;;;;75.05;22.13;;;;;;;26.14;40.05;98970.94;5099405;28;20035;-71
2022/06/13 06:09:06;;;;;;;131.40;31.23;;;;;;;26.13;39.98;98976.59;5114146;28;20034;-68
2022/06/13 06:11:32;;;;;;;137.85;34.20;;;;;;;26.11;39.80;98963.25;5112524;28;20434;-69
2022/06/13 06:13:58;;;;;;;130.88;30.33;;;;;;;26.12;40.01;98970.34;5112963;28;20137;-68
2022/06/13 06:16:25;;;;;;;107.32;25.50;;;;;;;26.17;39.88;98970.47;5117846;28;20046;-69
2022/06/13 06:18:52;;;;;;;148.23;35.20;;;;;;;26.19;39.88;98971.06;5112165;28;20045;-68
2022/06/13 06:21:17;;;;;;;122.22;32.22;;;;;;;26.23;39.86;98965.16;5112305;28;20440;-70
2022/06/13 06:23:43;;;;;;;132.00;32.45;;;;;;;26.24;39.62;98962.19;5111996;28;20031;-69
2022/06/13 06:26:11;;;;;;;124.45;29.70;;;;;;;26.27;39.74;98974.44;5112551;28;20039;-69
2022/06/13 06:28:36;;;;;;;69.07;16.42;;;;;;;26.27;39.59;98967.16;5120604;28;20268;-69
2022/06/13 06:31:03;;;;;;;43.72;12.30;;;;;;;26.27;39.92;98953.59;5133204;28;20067;-70
2022/06/13 06:33:29;;;;;;;41.65;12.60;;;;;;;26.27;39.96;98959.00;5128147;28;20092;-70
2022/06/13 06:35:55;;;;;;;58.55;14.32;;;;;;;26.27;39.92;98958.16;5112630;28;20031;-71
2022/06/13 06:38:22;;;;;;;42.78;10.95;;;;;;;26.26;39.86;98962.78;5111681;28;20155;-70
2022/06/13 06:40:48;;;;;;;39.15;11.15;;;;;;;26.25;39.96;98960.31;5112746;28;20032;-69
2022/06/13 06:43:14;;;;;;;28.75;8.38;;;;;;;26.24;39.81;98964.91;5112363;28;20472;-70
2022/06/13 06:45:41;;;;;;;12.35;6.07;;;;;;;26.22;39.97;98966.22;5111949;28;20032;-71
2022/06/13 06:48:15;;;;;;;14.20;5.55;;;;;;;26.19;40.26;98962.91;5112486;28;20091;-71
2022/06/13 06:50:43;;;;;;;13.13;5.25;;;;;;;26.17;40.22;98966.94;5112604;28;20401;-70
2022/06/13 06:53:10;;;;;;;14.13;5.28;;;;;;;26.14;40.19;98962.78;5115415;28;20106;-71
2022/06/13 07:01:07;;;;;;;8.55;3.33;;;;;;;26.11;40.38;98965.16;5116268;28;20034;-72
2022/06/13 07:03:33;;;;;;;6.90;3.00;;;;;;;26.09;40.55;98951.81;5122613;27;20024;-72
2022/06/13 07:05:59;;;;;;;5.05;3.10;;;;;;;26.11;40.46;98957.84;5116457;27;20085;-72
2022/06/13 07:08:24;;;;;;;9.45;3.60;;;;;;;26.13;40.50;98960.34;5118729;27;20023;-72
2022/06/13 07:10:50;;;;;;;5.30;2.88;;;;;;;26.12;40.58;98959.50;5115636;28;20123;-69
2022/06/13 07:13:17;;;;;;;5.07;3.13;;;;;;;26.15;40.54;98960.91;5115811;28;20034;-71
2022/06/13 07:15:42;;;;;;;8.88;2.70;;;;;;;26.16;40.52;98955.25;5115486;28;20031;-70
2022/06/13 07:18:08;;;;;;;5.80;3.00;;;;;;;26.19;40.49;98957.50;5123987;27;20080;-70
2022/06/13 07:20:35;;;;;;;4.38;2.47;;;;;;;26.22;40.40;98950.75;5136024;27;20401;-72
2022/06/13 07:23:01;;;;;;;8.48;3.35;;;;;;;26.24;40.59;98947.81;5129773;27;20023;-70
2022/06/13 07:25:29;;;;;;;5.40;2.53;;;;;;;26.27;40.48;98948.16;5128674;27;20034;-70
2022/06/13 07:27:55;;;;;;;10.05;3.10;;;;;;;26.27;40.30;98941.91;5116236;27;20510;-71
2022/06/13 07:30:24;;;;;;;6.65;3.05;;;;;;;26.28;40.38;98940.84;5115211;28;20050;-69
2022/06/13 07:32:51;;;;;;;4.05;2.35;;;;;;;26.27;40.63;98942.75;5116425;27;20027;-71
2022/06/13 07:35:20;;;;;;;5.72;2.83;;;;;;;26.28;40.60;98944.41;5114337;27;20146;-70
2022/06/13 07:40:31;;;;;;;3.47;2.85;;;;;;;26.29;40.68;98947.91;5121026;27;20038;-73
2022/06/13 07:43:00;;;;;;;6.45;2.60;;;;;;;26.28;40.80;98944.41;5116187;27;20038;-71
2022/06/13 07:45:28;;;;;;;6.47;2.53;;;;;;;26.28;40.83;98948.97;5114860;28;20032;-69
2022/06/13 07:47:54;;;;;;;4.72;2.47;;;;;;;26.28;40.99;98946.25;5116009;27;20035;-71
2022/06/13 07:50:22;;;;;;;4.90;2.30;;;;;;;26.27;40.81;98950.03;5114366;28;20093;-71
2022/06/13 07:52:49;;;;;;;2.67;2.10;;;;;;;26.24;40.82;98948.63;5115845;27;20031;-70
2022/06/13 07:55:15;;;;;;;3.42;2.60;;;;;;;26.25;41.03;98949.47;5114220;28;20028;-71
2022/06/13 07:57:40;;;;;;;4.15;2.33;;;;;;;26.26;41.10;98957.38;5115092;28;20055;-71
2022/06/13 08:00:08;;;;;;;4.45;2.42;;;;;;;26.24;41.32;98953.25;5114697;28;20127;-69
2022/06/13 08:02:35;;;;;;;5.03;2.92;;;;;;;26.25;41.05;98949.47;5114446;28;20123;-71
2022/06/13 08:05:01;;;;;;;8.82;2.58;;;;;;;26.25;41.33;98949.47;5114740;28;20478;-70
2022/06/13 08:07:27;;;;;;;4.72;2.53;;;;;;;26.22;41.04;98939.91;5122700;27;20042;-71
2022/06/13 08:09:52;;;;;;;4.25;2.55;;;;;;;26.23;41.40;98946.97;5134928;27;20030;-71
2022/06/13 08:12:20;;;;;;;3.95;3.13;;;;;;;26.23;41.27;98943.47;5123992;27;20035;-70
2022/06/13 08:14:47;;;;;;;5.13;4.20;;;;;;;26.22;41.23;98939.91;5114128;28;20027;-71
2022/06/13 08:17:15;;;;;;;13.43;9.25;;;;;;;26.23;41.21;98938.84;5114517;28;20030;-72
2022/06/13 08:19:40;;;;;;;10.40;7.40;;;;;;;26.21;41.27;98932.84;5114557;28;20407;-73
2022/06/13 08:22:06;;;;;;;5.35;4.47;;;;;;;26.20;41.13;98931.19;5113662;28;20111;-71
2022/06/13 08:24:32;;;;;;;4.90;3.30;;;;;;;26.20;41.07;98936.63;5113428;27;20032;-70
2022/06/13 08:26:57;;;;;;;5.18;3.30;;;;;;;26.19;40.98;98932.25;5114176;28;20399;-70
2022/06/13 08:29:22;;;;;;;7.55;4.30;;;;;;;26.19;41.35;98914.09;5128080;27;20027;-71
2022/06/13 08:31:48;;;;;;;5.05;2.85;;;;;;;26.22;41.17;98917.41;5130606;27;20438;-71
2022/06/13 08:34:13;;;;;;;4.93;3.00;;;;;;;26.22;41.22;98920.13;5114269;27;20027;-70
2022/06/13 08:36:39;;;;;;;6.15;2.78;;;;;;;26.22;41.06;98912.00;5114176;28;20038;-70
2022/06/13 08:39:05;;;;;;;3.65;3.00;;;;;;;26.22;40.91;98910.09;5114055;28;20096;-71
2022/06/13 08:41:58;;;;;;;6.90;2.88;;;;;;;26.22;40.98;98904.66;5095312;28;20114;-71
2022/06/13 08:44:50;;;;;;;6.55;2.70;;;;;;;26.20;41.35;98904.06;5113825;28;20035;-71
2022/06/13 08:47:43;;;;;;;4.78;2.58;;;;;;;26.19;41.33;98908.69;5113626;28;20062;-69
2022/06/13 08:50:30;;;;;;;3.58;2.22;;;;;;;26.20;41.18;98913.03;5113726;28;20050;-70
2022/06/13 08:53:04;;;;;;;4.00;2.50;;;;;;;26.19;41.35;98903.25;5114475;27;20491;-69
2022/06/13 08:55:44;;;;;;;6.22;3.33;;;;;;;26.19;41.50;98907.84;5113334;28;20582;-72
2022/06/13 08:58:26;;;;;;;6.95;4.40;;;;;;;26.18;41.62;98911.63;5113466;28;20110;-70
2022/06/13 09:01:03;;;;;;;11.80;4.80;;;;;;;26.16;41.54;98908.34;5113501;28;20122;-70
2022/06/13 09:03:55;;;;;;;13.05;4.22;;;;;;;26.16;41.41;98898.31;5122273;27;20043;-70
2022/06/13 09:06:35;;;;;;;6.20;3.60;;;;;;;26.16;41.54;98906.44;5105341;27;20066;-71
2022/06/13 09:09:09;;;;;;;4.38;3.30;;;;;;;26.15;41.63;98898.56;5113491;27;20066;-70
2022/06/13 09:12:02;;;;;;;5.90;2.67;;;;;;;26.17;41.56;98907.28;5113600;28;20375;-70
2022/06/13 09:14:46;;;;;;;4.95;2.53;;;;;;;26.15;41.56;98904.78;5113326;28;20039;-71
2022/06/13 09:17:22;;;;;;;4.80;3.00;;;;;;;26.17;41.75;98901.88;5128004;27;20059;-71
2022/06/13 09:19:55;;;;;;;6.45;2.92;;;;;;;26.18;41.75;98904.31;5118841;27;20031;-71
2022/06/13 09:22:42;;;;;;;8.85;2.67;;;;;;;26.19;41.74;98895.13;5114198;28;20118;-70
2022/06/13 09:25:22;;;;;;;4.07;2.50;;;;;;;26.19;41.99;98889.72;5113514;27;20020;-71
2022/06/13 09:28:24;;;;;;;4.55;2.78;;;;;;;26.20;41.68;98894.06;5112821;28;20055;-70
2022/06/13 09:30:57;;;;;;;7.72;3.08;;;;;;;26.20;41.89;98887.81;5113666;28;20032;-70
2022/06/13 09:33:28;;;;;;;4.95;3.65;;;;;;;26.22;42.09;98884.88;5112804;28;20502;-73
2022/06/13 09:36:11;;;;;;;7.90;3.78;;;;;;;26.23;42.37;98881.91;5113586;28;20027;-70
2022/06/13 09:38:53;;;;;;;5.80;3.58;;;;;;;26.22;42.74;98877.56;5112835;28;20119;-71
2022/06/13 09:41:39;;;;;;;4.25;3.70;;;;;;;26.22;42.57;98874.03;5112849;28;20036;-69
2022/06/13 09:44:17;;;;;;;3.50;2.92;;;;;;;26.19;42.73;98881.56;5112979;28;20455;-72
2022/06/13 09:46:56;;;;;;;3.75;2.88;;;;;;;26.19;42.54;98886.16;5112803;28;20027;-69
2022/06/13 09:49:36;;;;;;;5.88;2.97;;;;;;;26.19;42.67;98888.88;5112760;28;20040;-69
2022/06/13 09:52:07;;;;;;;6.50;3.08;;;;;;;26.18;42.64;98896.19;5112413;28;20039;-71
2022/06/13 09:54:46;;;;;;;4.35;2.83;;;;;;;26.18;42.54;98889.94;5133470;28;20035;-71
2022/06/13 09:57:36;;;;;;;4.25;3.00;;;;;;;26.17;42.45;98894.53;5126874;28;20039;-71
2022/06/13 10:00:02;;;;;;;3.00;2.60;;;;;;;26.14;42.49;98894.19;5113087;28;20427;-70
2022/06/13 10:02:30;;;;;;;4.72;2.60;;;;;;;26.15;43.00;98893.16;5112847;28;20159;-72
2022/06/13 10:05:26;;;;;;;5.38;3.08;;;;;;;26.16;42.62;98894.78;5113427;28;20582;-71
2022/06/13 10:08:27;;;;;;;3.80;2.72;;;;;;;26.16;42.65;98883.94;5133038;28;20031;-72
2022/06/13 10:10:55;;;;;;;5.03;2.92;;;;;;;26.15;42.90;98890.44;5101409;28;20053;-71
2022/06/13 10:14:03;;;;;;;7.28;3.20;;;;;;;26.17;42.79;98891.03;5124120;28;20038;-73
2022/06/13 10:16:46;;;;;;;4.97;2.95;;;;;;;26.17;42.85;98891.81;5112646;28;20039;-72
2022/06/13 10:19:20;;;;;;;5.45;2.47;;;;;;;26.18;43.15;98874.50;5127486;28;20061;-73
2022/06/13 10:21:54;;;;;;;5.50;3.00;;;;;;;26.22;43.01;98884.88;5133099;28;20489;-69
2022/06/13 10:24:37;;;;;;;5.35;2.70;;;;;;;26.23;43.00;98875.69;5119711;28;20030;-70
2022/06/13 10:27:08;;;;;;;7.55;3.08;;;;;;;26.24;43.01;98874.63;5114094;28;20055;-71
2022/06/13 10:30:02;;;;;;;8.90;3.80;;;;;;;26.25;43.23;98870.84;5116543;28;20549;-71
2022/06/13 10:32:46;;;;;;;6.72;3.78;;;;;;;26.24;43.37;98856.44;5116177;28;20038;-71
2022/06/13 10:35:24;;;;;;;11.00;3.42;;;;;;;26.25;43.18;98858.09;5116034;28;20035;-70
2022/06/13 10:38:14;;;;;;;11.18;4.20;;;;;;;26.27;43.04;98857.84;5116433;28;20031;-71
2022/06/13 10:40:41;;;;;;;10.85;4.05;;;;;;;26.27;43.22;98858.69;5116822;28;20067;-71
2022/06/13 10:43:07;;;;;;;8.60;4.05;;;;;;;26.28;43.16;98854.91;5116648;27;20557;-71
2022/06/13 10:45:35;;;;;;;16.60;6.63;;;;;;;26.30;43.13;98855.50;5137075;27;20431;-71
2022/06/13 10:48:07;;;;;;;16.15;5.30;;;;;;;26.30;43.28;98846.53;5136479;27;20038;-71
2022/06/13 10:50:42;;;;;;;19.95;9.43;;;;;;;26.30;43.39;98851.94;5136878;27;20359;-72
2022/06/13 10:53:15;;;;;;;14.38;6.78;;;;;;;26.30;43.48;98849.22;5118437;27;20070;-71
2022/06/13 10:55:43;;;;;;;30.77;11.90;;;;;;;26.29;43.80;98844.88;5115939;28;20031;-71
2022/06/13 10:58:18;;;;;;;23.45;8.68;;;;;;;26.29;43.85;98834.88;5115904;28;20375;-70
2022/06/13 11:01:02;;;;;;;17.33;6.85;;;;;;;26.28;44.05;98829.66;5116181;28;20027;-73
2022/06/13 11:03:27;;;;;;;21.25;7.55;;;;;;;26.25;44.19;98833.69;5115482;28;20061;-71
2022/06/13 11:06:13;;;;;;;17.05;6.25;;;;;;;26.26;44.24;98839.91;5116331;28;20031;-71
2022/06/13 11:08:40;;;;;;;18.45;4.72;;;;;;;26.25;44.17;98841.00;5129286;27;20035;-73
2022/06/13 11:11:17;;;;;;;11.32;5.25;;;;;;;26.27;44.32;98838.84;5136140;27;20035;-71
2022/06/13 11:13:52;;;;;;;14.32;5.65;;;;;;;26.27;44.17;98838.84;5121740;27;20032;-72
2022/06/13 11:25:01;;;;;;;4.53;2.92;;;;;;;26.22;43.45;98850.44;5115678;28;20116;-70
2022/06/13 11:27:40;;;;;;;7.15;4.10;;;;;;;26.25;43.04;98857.28;5115072;28;20072;-73
2022/06/13 11:30:27;;;;;;;6.28;2.95;;;;;;;26.23;42.99;98854.78;5129253;27;20042;-72
2022/06/13 11:33:31;;;;;;;4.75;2.95;;;;;;;26.21;43.10;98856.91;5114845;28;20126;-70
2022/06/13 11:36:00;;;;;;;3.78;2.30;;;;;;;26.19;43.03;98865.31;5115122;27;20401;-70
2022/06/13 11:38:33;;;;;;;3.60;2.47;;;;;;;26.20;42.73;98855.28;5114230;28;20035;-71
2022/06/13 11:41:14;;;;;;;7.38;3.17;;;;;;;26.17;42.60;98858.47;5115001;28;20027;-71
2022/06/13 11:44:00;;;;;;;3.95;2.45;;;;;;;26.14;42.79;98865.19;5115246;28;20027;-71
2022/06/13 11:46:54;;;;;;;4.40;3.08;;;;;;;26.11;42.81;98865.66;5114336;28;20035;-69
2022/06/13 11:49:26;;;;;;;4.10;2.67;;;;;;;26.08;43.51;98863.41;5114802;28;20026;-71
2022/06/13 11:55:19;;;;;;;3.50;2.30;;;;;;;26.03;43.63;98874.97;5115114;28;20070;-70
2022/06/13 11:57:53;;;;;;;6.75;3.17;;;;;;;26.03;43.93;98871.44;5114434;28;20031;-70
2022/06/13 12:00:19;;;;;;;3.85;2.80;;;;;;;25.99;44.79;98860.25;5114512;28;20164;-72
2022/06/13 12:02:47;;;;;;;8.90;3.30;;;;;;;25.95;45.08;98863.69;5113909;28;20114;-70
2022/06/13 12:05:22;;;;;;;5.47;2.85;;;;;;;25.92;45.68;98859.53;5114544;28;20032;-71
2022/06/13 12:08:00;;;;;;;3.85;3.17;;;;;;;25.87;46.00;98859.47;5114323;28;20489;-72
2022/06/13 12:10:33;;;;;;;3.60;2.50;;;;;;;25.85;45.51;98873.22;5114473;28;20032;-71
2022/06/13 12:12:59;;;;;;;6.20;3.28;;;;;;;25.88;45.50;98880.09;5114433;28;20171;-72
2022/06/13 12:15:35;;;;;;;6.35;3.95;;;;;;;25.88;46.28;98880.88;5114666;28;20038;-72
2022/06/13 12:18:23;;;;;;;5.20;3.50;;;;;;;25.87;46.28;98889.28;5117791;27;20031;-71
2022/06/13 12:20:53;;;;;;;3.78;3.10;;;;;;;25.83;46.14;98888.09;5115887;27;20564;-71
2022/06/13 12:23:30;;;;;;;9.68;4.22;;;;;;;25.81;46.21;98890.19;5114449;28;20131;-71
2022/06/13 12:26:05;;;;;;;6.50;3.53;;;;;;;25.73;46.72;98892.19;5114556;28;20031;-71
2022/06/13 12:29:00;;;;;;;3.55;3.25;;;;;;;25.70;46.88;98887.28;5116132;27;20494;-72